Flight Track Log - Related Links

Times and Time Zones

All times are in EST time to prevent confusion due to time zone crossing. See the EJA831 flight status page for this flight to view local times or setup timezone preferences in your user account.

Time Position Orientation Groundspeed Altitude Reporting Facility
EST Latitude Longitude Course Direction KTS MPH feet Rate Location/Type
Wed 06:01:16 PM 33.0000 -97.0833 340° North 242 278 6,700  Level Dallas / Fort Worth TRACON
Wed 06:02:16 PM 33.0167 -97.1500 287° West 228 262 9,500 1,377 Climbing Dallas / Fort Worth TRACON
Wed 06:04:19 PM 32.9319 -97.2908 234° Southwest 300 345 10,900 1,161 Climbing Fort Worth Center
Wed 06:05:22 PM 32.8428 -97.2881 179° South 323 372 13,100 2,256 Climbing Fort Worth Center
Wed 06:06:24 PM 32.7369 -97.2650 170° South 366 421 15,600 2,226 Climbing Fort Worth Center
Wed 06:07:26 PM 32.6383 -97.2203 159° South 379 436 17,700 2,177 Climbing Fort Worth Center
Wed 06:08:28 PM 32.5397 -97.1756 159° South 379 436 20,100 2,226 Climbing Fort Worth Center
Wed 06:09:30 PM 32.4289 -97.1258 159° South 388 447 22,300 1,694 Climbing Fort Worth Center
Wed 06:10:32 PM 32.3261 -97.0783 159° South 398 458 23,600 823 Climbing Fort Worth Center
Wed 06:11:34 PM 32.2164 -97.0619 173° South 398 458 24,000 194 Climbing Fort Worth Center
Wed 06:12:36 PM 32.1122 -97.0897 193° South 384 442 24,000  Level Fort Worth Center
Wed 06:13:38 PM 32.0081 -97.1164 192° South 383 441 24,000  Level Fort Worth Center
Wed 06:14:40 PM 31.9000 -97.1461 193° South 385 443 24,000  Level Fort Worth Center
Wed 06:15:43 PM 31.7947 -97.1722 192° South 383 441 24,000  Level Fort Worth Center
Wed 06:16:45 PM 31.6711 -97.2050 193° South 385 443 24,000  Level Fort Worth Center
Wed 06:17:34 PM 31.5989 -97.2236 192° South 388 447 24,000  Level Houston Center
Wed 06:18:37 PM 31.4742 -97.2533 191° South 388 447 24,000  Level Houston Center
Wed 06:19:39 PM 31.3689 -97.2808 193° South 386 444 24,000  Level Houston Center
Wed 06:20:41 PM 31.2636 -97.3075 192° South 383 441 24,000  Level Houston Center
Wed 06:21:43 PM 31.1578 -97.3347 192° South 385 443 24,000  Level Houston Center
Wed 06:22:45 PM 31.0536 -97.3619 193° South 385 443 24,000  Level Houston Center
Wed 06:23:47 PM 30.9342 -97.3922 192° South 380 437 24,000  Level Houston Center
Wed 06:24:49 PM 30.8425 -97.4139 191° South 343 395 24,000  Level Houston Center
Wed 06:25:52 PM 30.7522 -97.4364 192° South 333 383 24,000  Level Houston Center
Wed 06:26:54 PM 30.6611 -97.4583 192° South 331 381 24,000 -774 Level Houston Center
Wed 06:27:56 PM 30.5658 -97.4825 192° South 344 396 22,400 -1,452 Descending Houston Center
Wed 06:28:58 PM 30.4481 -97.5114 192° South 363 418 21,000 -677 Descending Houston Center
Wed 06:30:00 PM 30.3514 -97.5483 198° South 360 414 21,000 -532 Level Houston Center
Wed 06:31:02 PM 30.2678 -97.6053 210° Southwest 346 398 19,900 -1,306 Descending Houston Center
Wed 06:32:04 PM 30.1858 -97.6633 211° Southwest 343 395 18,300 -1,355 Descending Houston Center
Wed 06:33:06 PM 30.1025 -97.7208 211° Southwest 345 397 17,100 -1,360 Descending Houston Center
Wed 06:33:19 PM 30.0758 -97.7378 209° Southwest 347 399 16,600 -2,160 Descending Houston Center
Wed 06:33:31 PM 30.0642 -97.7464 213° Southwest 347 399 16,200 -1,680 Descending Houston Center
Wed 06:34:09 PM 30.0072 -97.7844 210° Southwest 340 391 15,200 -1,574 Descending Houston Center
Wed 06:34:32 PM 29.9778 -97.8083 215° Southwest 337 388 14,600 -1,548 Descending Houston Center
Wed 06:35:11 PM 29.9272 -97.8397 208° Southwest 336 387 13,600 -1,475 Descending Houston Center
Wed 06:35:33 PM 29.8992 -97.8664 219° Southwest 333 383 13,100 -1,355 Descending Houston Center
Wed 06:36:13 PM 29.8731 -97.9189 240° Southwest 321 369 12,200 -1,475 Descending Houston Center
Wed 06:36:34 PM 29.8611 -97.9508 247° West 286 329 11,600 -1,548 Descending Houston Center
Wed 06:37:15 PM 29.8381 -98.0039 243° Southwest 276 318 10,600 -1,500 Descending Houston Center
Wed 06:37:34 PM 29.8267 -98.0297 243° Southwest 269 310 10,100 -1,452 Descending Houston Center
Wed 06:38:17 PM 29.8042 -98.0839 244° Southwest 277 319 9,100 -1,377 Descending Houston Center
Wed 06:38:35 PM 29.7942 -98.1086 245° Southwest 275 316 8,700 -1,548 Descending Houston Center
Wed 06:39:19 PM 29.7667 -98.1669 242° Southwest 272 313 7,500 -1,574 Descending Houston Center
Wed 06:39:36 PM 29.7500 -98.1742 201° Southwest 275 316 7,100 -1,355 Descending Houston Center
Wed 06:40:21 PM 29.6931 -98.1894 193° South 271 312 6,100 -1,082 Descending Houston Center
Wed 06:40:37 PM 29.6722 -98.1958 195° South 266 306 6,000 -581 Descending Houston Center
Wed 06:41:23 PM 29.6172 -98.2097 192° South 261 300 5,500 -885 Descending Houston Center
Wed 06:41:38 PM 29.6025 -98.2139 194° South 254 292 5,100 -484 Descending Houston Center
Wed 06:42:25 PM 29.5544 -98.2228 189° South 232 267 5,000 -100 Descending Houston Center
Wed 06:42:38 PM 29.5403 -98.2239 184° South 220 253 5,000 -952 Level Houston Center
Wed 06:43:28 PM 29.4864 -98.2264 182° South 226 260 4,000 -984 Descending Houston Center
Wed 06:43:39 PM 29.4756 -98.2272 184° South 227 261 4,000  Level Houston Center
Wed 06:44:30 PM 29.4261 -98.2478 200° South 227 261 4,000  Level Houston Center
Wed 06:44:40 PM 29.4169 -98.2536 209° Southwest 228 262 4,000 -968 Level Houston Center
Wed 06:45:32 PM 29.4056 -98.3053 256° West 214 246 3,000 -984 Descending Houston Center
Wed 06:45:41 PM 29.4081 -98.3144 287° West 207 238 3,000  Level Houston Center
Wed 06:46:34 PM 29.4361 -98.3492 313° West 161 185 3,000  Level Houston Center
Wed 06:46:42 PM 29.4367 -98.3519 283° West 146 168 3,000 -290 Level Houston Center
Wed 06:47:36 PM 29.4647 -98.3858 314° West 155 178 2,700 -400 Descending Houston Center
Wed 06:47:42 PM 29.4678 -98.3914 302° West 151 174 2,600 -871 Descending Houston Center
Wed 06:48:38 PM 29.4928 -98.4214 314° West 143 165 1,800 -787 Descending Houston Center
Wed 06:48:43 PM 29.4939 -98.4242 295° West 135 155 1,800 -677 Level Houston Center
Wed 06:49:40 PM 29.5161 -98.4519 313° West 130 150 1,100 -689 Descending Houston Center
Wed 06:49:44 PM 29.5178 -98.4550 302° West 123 142 1,100 -387 Level Houston Center
Wed 06:50:42 PM 29.5381 -98.4792 314° West 126 145 700 -414 Descending Houston Center

Login

Don't have an account? Register now (free) for customized features, flight alerts, and more!